Skip Navigation Links
NOAA logo - Click to go to the NOAA homepage
NOAA's National Weather Service
Alaska Aviation Weather Unit
  NWS logo - Click to go to the NWS homepage
Left Navbar Graphic     22 AKDT = 06 GMT

   
NOAA is celebrating 200 years of science, service, and stewardship. Visit the NOAA 200th celebration Web site to learn more.
USA.gov is the U.S. Government's official Web portal to all Federal, state and local government Web resources and services.
Facebook
NWS on Facebook

Important Change Regarding the AAWU Web Presence

 

Over the last several months, the AAWU has been working to navigate its webpages to a nationally supported server. Security, as well as other needs, have necessitated the change.  In the process, we have made an effort to enhance the functionality of our website, as well as some of our products. As of June 20, 2017, aawu.arh.noaa.gov will be discontinued. The new AAWU web address is weather.gov/aawu. It is now live and will run in-parallel with the old site until it is discontinued. Please send any feedback or questions regarding the new webpages to nws.ar.aawu.webauthors@noaa.gov.  Thank you for your patience during this time of transition.
AAWU Home :: Display TAF Add Bookmark
METAR PASL 280016Z AUTO 19005KT 10SM CLR 11/02 A2997 RMK AO1=

METAR PASL 280036Z AUTO 16006KT 10SM FEW048 BKN060 BKN070 10/01
 A2997 RMK AO1=

METAR PASL 280056Z AUTO 22007KT 10SM SCT045 BKN060 08/01 A2998 RMK
 AO1=

METAR PASL 280116Z AUTO 28003KT 10SM FEW055 FEW075 SCT090 09/02
 A2997 RMK AO1=

PASL 280136Z AUTO 06009G16KT 10SM FEW035 BKN055 BKN065 09/01 A2998
     RMK AO1=

METAR PASL 280156Z AUTO 09003KT 10SM FEW035 SCT046 BKN060 07/02
 A2999 RMK AO1=

METAR PASL 280316Z AUTO 00000KT 10SM CLR 08/02 A2996 RMK AO1=

METAR PASL 280356Z AUTO 00000KT 10SM CLR 09/00 A2995 RMK AO1=

METAR PASL 280516Z AUTO 00000KT 10SM CLR 09/M01 A2994 RMK AO1=

METAR PASL 280616Z AUTO 06006KT 10SM FEW041 SCT050 SCT060 08/02
 A2995 RMK AO1=


NOAA's National Weather Service
Alaska Aviation Weather Unit
6930 Sand Lake Road
Anchorage, AK 99502-1845
Disclaimer
Credits
Glossary
Privacy Policy
About Us
Career Opportunities
Contact AAWU Internet Services Site last modified: April, 17th 2012